createdAt,value
2022-12-24T00:01:45.387Z,57.6
2022-12-24T00:07:28.874Z,57.6
2022-12-24T00:13:06.881Z,57.5
2022-12-24T00:18:29.892Z,57.4
2022-12-24T00:24:09.665Z,57.4
2022-12-24T00:29:17.331Z,57.4
2022-12-24T00:35:03.081Z,57.3
2022-12-24T00:40:40.792Z,57.3
2022-12-24T00:46:18.956Z,57.3
2022-12-24T00:52:00.895Z,57.2
2022-12-24T00:57:38.622Z,57.2
2022-12-24T01:03:02.327Z,57.1
2022-12-24T01:08:41.343Z,57.1
2022-12-24T01:14:18.857Z,57.1
2022-12-24T01:19:57.126Z,57
2022-12-24T01:25:35.322Z,56.9
2022-12-24T01:31:13.266Z,56.9
2022-12-24T01:36:21.044Z,56.9
2022-12-24T01:41:28.232Z,56.9
2022-12-24T01:46:56.695Z,56.8
2022-12-24T01:52:18.392Z,56.8
2022-12-24T01:57:56.846Z,56.7
2022-12-24T02:03:36.134Z,56.7
2022-12-24T02:09:14.092Z,56.6
2022-12-24T02:14:37.253Z,57
2022-12-24T02:25:22.677Z,58.6
2022-12-24T02:31:00.830Z,59.7
2022-12-24T02:36:22.899Z,60.7
2022-12-24T02:41:52.656Z,61.4
2022-12-24T02:47:52.324Z,61.8
2022-12-24T02:53:29.683Z,62.1
2022-12-24T02:58:52.412Z,62.2
2022-12-24T03:04:16.681Z,62.3
2022-12-24T03:09:38.519Z,62.6
2022-12-24T03:15:01.069Z,62.6
2022-12-24T03:20:40.245Z,62.8
2022-12-24T03:26:17.898Z,62.8
2022-12-24T03:31:40.763Z,62.9
2022-12-24T03:37:18.686Z,62.9
2022-12-24T03:42:56.390Z,62.9
2022-12-24T03:48:34.931Z,62.9
2022-12-24T03:54:12.225Z,62.9
2022-12-24T03:59:49.622Z,62.8
2022-12-24T04:04:57.439Z,62.8
2022-12-24T04:10:35.640Z,62.8
2022-12-24T04:16:15.363Z,62.7
2022-12-24T04:21:53.622Z,62.7
2022-12-24T04:27:31.695Z,62.6
2022-12-24T04:32:54.468Z,62.6
2022-12-24T04:38:17.057Z,62.6
2022-12-24T04:43:27.796Z,62.5
2022-12-24T04:49:06.564Z,62.4
2022-12-24T04:54:29.536Z,62.4
2022-12-24T04:59:51.462Z,62.4
2022-12-24T05:06:01.477Z,62.3
2022-12-24T05:11:38.678Z,62.3
2022-12-24T05:17:25.334Z,62.3
2022-12-24T05:23:02.818Z,62.2
2022-12-24T05:28:41.199Z,62.2
2022-12-24T05:33:48.816Z,62.1
2022-12-24T05:39:32.167Z,62.1
2022-12-24T05:45:10.040Z,62
2022-12-24T05:50:34.219Z,62
2022-12-24T05:55:58.342Z,61.9
2022-12-24T06:01:36.881Z,61.9
2022-12-24T06:07:05.006Z,61.9
2022-12-24T06:12:43.347Z,61.8
2022-12-24T06:18:27.113Z,61.8
2022-12-24T06:24:05.446Z,61.7
2022-12-24T06:29:28.466Z,61.6
2022-12-24T06:35:14.807Z,61.6
2022-12-24T06:40:53.080Z,61.6
2022-12-24T06:46:31.544Z,61.5
2022-12-24T06:52:10.066Z,61.5
2022-12-24T06:57:32.414Z,61.4
2022-12-24T07:03:17.155Z,61.4
2022-12-24T07:08:56.062Z,61.3
2022-12-24T07:14:35.232Z,61.3
2022-12-24T07:20:21.517Z,61.3
2022-12-24T07:26:00.686Z,61.2
2022-12-24T07:31:53.397Z,61.1
2022-12-24T07:37:34.596Z,61.1
2022-12-24T07:43:20.740Z,61.1
2022-12-24T07:48:59.154Z,61
2022-12-24T07:54:37.602Z,60.9
2022-12-24T08:00:16.529Z,60.9
2022-12-24T08:06:00.516Z,60.9
2022-12-24T08:11:39.204Z,60.8
2022-12-24T08:17:17.138Z,60.8
2022-12-24T08:22:55.924Z,60.6
2022-12-24T08:28:33.665Z,60.6
2022-12-24T08:34:19.236Z,60.5
2022-12-24T08:39:57.109Z,60.4
2022-12-24T08:45:40.083Z,60.4
2022-12-24T08:51:19.181Z,60.4
2022-12-24T08:57:02.294Z,60.3
2022-12-24T09:02:42.423Z,60.3
2022-12-24T09:08:26.082Z,60.2
2022-12-24T09:14:08.967Z,60.1
2022-12-24T09:19:53.048Z,60.1
2022-12-24T09:25:20.434Z,60.1
2022-12-24T09:30:43.522Z,60
2022-12-24T09:36:27.024Z,59.9
2022-12-24T09:42:09.884Z,59.9
2022-12-24T09:47:35.997Z,59.9
2022-12-24T09:53:14.836Z,59.8
2022-12-24T09:58:37.774Z,59.8
2022-12-24T10:04:02.197Z,59.7
2022-12-24T10:09:40.805Z,59.6
2022-12-24T10:15:08.681Z,59.6
2022-12-24T10:20:46.860Z,59.5
2022-12-24T10:26:29.141Z,59.5
2022-12-24T10:32:13.405Z,59.4
2022-12-24T10:37:51.833Z,59.4
2022-12-24T10:43:23.099Z,59.3
2022-12-24T10:49:07.109Z,59.3
2022-12-24T10:54:45.479Z,59.3
2022-12-24T11:00:23.785Z,59.2
2022-12-24T11:05:49.511Z,59.1
2022-12-24T11:11:31.004Z,59.1
2022-12-24T11:17:50.264Z,59
2022-12-24T11:23:35.699Z,59
2022-12-24T11:29:21.238Z,58.9
2022-12-24T11:35:05.012Z,58.9
2022-12-24T11:40:42.801Z,58.8
2022-12-24T11:46:23.070Z,58.8
2022-12-24T11:52:17.887Z,58.8
2022-12-24T11:58:03.225Z,58.7
2022-12-24T12:03:50.357Z,58.6
2022-12-24T12:14:55.046Z,58.5
2022-12-24T12:20:37.916Z,58.5
2022-12-24T12:26:16.254Z,58.4
2022-12-24T12:32:01.695Z,58.4
2022-12-24T12:37:47.482Z,58.3
2022-12-24T12:43:30.986Z,58.3
2022-12-24T12:48:58.675Z,58.3
2022-12-24T12:54:40.511Z,58.2
2022-12-24T13:00:22.643Z,58.1
2022-12-24T13:05:49.930Z,58.1
2022-12-24T13:11:35.944Z,58.1
2022-12-24T13:17:18.942Z,58
2022-12-24T13:23:02.681Z,57.9
2022-12-24T13:28:48.137Z,57.9
2022-12-24T13:34:27.364Z,57.9
2022-12-24T13:40:24.158Z,57.8
2022-12-24T13:51:31.304Z,57.7
2022-12-24T13:57:14.266Z,57.7
2022-12-24T14:03:00.531Z,57.6
2022-12-24T14:08:29.870Z,57.6
2022-12-24T14:14:13.634Z,57.5
2022-12-24T14:19:54.265Z,57.5
2022-12-24T14:25:32.204Z,57.4
2022-12-24T14:31:10.659Z,57.4
2022-12-24T14:36:49.309Z,57.3
2022-12-24T14:42:12.370Z,57.3
2022-12-24T14:47:54.842Z,57.3
2022-12-24T14:54:11.372Z,57.2
2022-12-24T15:00:21.179Z,57.1
2022-12-24T15:06:03.279Z,57.1
2022-12-24T15:11:46.169Z,57.1
2022-12-24T15:17:15.055Z,57
2022-12-24T15:22:27.865Z,56.9
2022-12-24T15:28:06.167Z,56.9
2022-12-24T15:33:52.125Z,56.9
2022-12-24T15:39:14.585Z,56.8
2022-12-24T15:44:37.592Z,56.8
2022-12-24T15:49:45.983Z,56.8
2022-12-24T15:55:08.650Z,56.7
2022-12-24T16:00:16.402Z,56.6
2022-12-24T16:05:41.303Z,56.6
2022-12-24T16:10:49.170Z,56.6
2022-12-24T16:16:19.159Z,56.5
2022-12-24T16:22:15.160Z,56.5
2022-12-24T16:27:53.614Z,56.4
2022-12-24T16:33:36.089Z,56.4
2022-12-24T16:39:13.924Z,56.3
2022-12-24T16:44:43.460Z,56.3
2022-12-24T16:50:25.033Z,56.3
2022-12-24T16:56:08.832Z,56.2
2022-12-24T17:01:00.908Z,56.1
